Time;durP1;ratioP1;P1;durP2;ratioP2;P2;SDS_P1;SDS_P2;PMS_P1;PMS_P2;Temp;Humidity;BMP_temperature;BMP_pressure;BME280_temperature;BME280_humidity;BME280_pressure;Samples;Min_cycle;Max_cycle;Signal;HPM_P1;HPM_P2
2023/04/03 00:01:09;;;;;;;5.63;3.30;;;;;;;1.64;86.21;102890.59;5053085;28;20051;-88
2023/04/03 00:03:35;;;;;;;5.88;3.63;;;;;;;1.63;86.11;102891.38;5052119;28;20476;-87
2023/04/03 00:06:01;;;;;;;6.07;3.72;;;;;;;1.60;86.07;102888.63;5052968;28;20021;-88
2023/04/03 00:08:26;;;;;;;7.30;3.45;;;;;;;1.53;86.52;102894.22;5052978;28;20413;-88
2023/04/03 00:10:51;;;;;;;6.32;3.58;;;;;;;1.52;86.37;102901.00;5052460;28;20049;-88
2023/04/03 00:13:17;;;;;;;5.82;3.70;;;;;;;1.51;86.43;102901.84;5053007;28;20029;-87
2023/04/03 00:15:45;;;;;;;5.57;3.22;;;;;;;1.46;86.49;102903.25;5052974;28;20021;-88
2023/04/03 00:18:11;;;;;;;5.00;3.10;;;;;;;1.39;86.47;102909.69;5052259;28;20041;-88
2023/04/03 00:20:36;;;;;;;5.60;3.50;;;;;;;1.35;86.88;102905.19;5053120;28;20469;-87
2023/04/03 00:23:04;;;;;;;6.40;3.83;;;;;;;1.30;86.91;102904.06;5052646;28;20119;-88
2023/04/03 00:25:30;;;;;;;6.32;3.80;;;;;;;1.29;86.84;102909.09;5053253;28;20039;-87
2023/04/03 00:27:55;;;;;;;5.82;3.60;;;;;;;1.22;86.62;102897.66;5052836;28;20033;-87
2023/04/03 00:30:21;;;;;;;6.00;3.50;;;;;;;1.22;87.11;102913.88;5052501;28;20060;-87
2023/04/03 00:32:50;;;;;;;7.38;3.85;;;;;;;1.18;86.86;102911.03;5052837;28;20032;-87
2023/04/03 00:35:17;;;;;;;6.60;3.47;;;;;;;1.16;86.93;102910.97;5053150;28;20025;-88
2023/04/03 00:37:42;;;;;;;5.03;3.40;;;;;;;1.13;87.16;102909.88;5052027;28;20380;-88
2023/04/03 00:40:09;;;;;;;4.72;3.20;;;;;;;1.10;87.49;102908.03;5058291;28;20025;-87
2023/04/03 00:42:36;;;;;;;5.68;3.30;;;;;;;1.10;87.09;102910.59;5063064;28;20108;-88
2023/04/03 00:45:02;;;;;;;4.55;3.05;;;;;;;1.07;87.19;102908.75;5052866;28;20029;-88
2023/04/03 00:47:30;;;;;;;5.40;3.47;;;;;;;1.04;87.58;102916.25;5052810;28;20055;-88
2023/04/03 00:49:56;;;;;;;6.03;3.65;;;;;;;1.10;87.88;102917.41;5054175;28;20528;-88
2023/04/03 00:52:25;;;;;;;7.28;3.70;;;;;;;1.04;87.81;102915.38;5056583;28;20055;-88
2023/04/03 00:54:53;;;;;;;6.03;3.50;;;;;;;1.04;87.92;102918.81;5056365;28;20484;-87
2023/04/03 00:57:19;;;;;;;6.53;3.58;;;;;;;1.07;88.54;102919.00;5056457;28;20017;-88
2023/04/03 00:59:52;;;;;;;4.25;3.13;;;;;;;1.09;87.98;102921.63;5055981;28;20025;-88
2023/04/03 01:02:18;;;;;;;6.25;3.38;;;;;;;1.06;87.90;102921.47;5056576;28;20029;-87
2023/04/03 01:04:44;;;;;;;4.60;3.17;;;;;;;1.08;87.92;102922.41;5056399;28;20055;-88
2023/04/03 01:07:16;;;;;;;5.63;3.25;;;;;;;1.05;88.29;102917.16;5062978;22;20093;-86
2023/04/03 01:09:44;;;;;;;4.32;3.03;;;;;;;1.05;88.20;102919.72;5055898;28;20028;-88
2023/04/03 01:12:25;;;;;;;4.55;2.92;;;;;;;1.03;88.71;102919.59;5055936;28;20032;-87
2023/04/03 01:14:59;;;;;;;4.20;2.85;;;;;;;1.01;88.25;102918.66;5056280;28;20029;-87
2023/04/03 01:17:37;;;;;;;4.45;3.08;;;;;;;1.01;88.49;102921.22;5056094;28;20029;-88
2023/04/03 01:20:11;;;;;;;3.85;2.70;;;;;;;1.02;88.52;102922.06;5055577;28;20032;-88
2023/04/03 01:23:05;;;;;;;4.03;2.80;;;;;;;1.00;88.58;102927.13;5055655;28;20451;-88
2023/04/03 01:25:31;;;;;;;4.35;2.80;;;;;;;1.00;88.71;102928.78;5036288;28;20056;-88
2023/04/03 01:27:56;;;;;;;4.77;2.80;;;;;;;0.98;88.63;102927.78;5055532;28;20171;-88
2023/04/03 01:30:27;;;;;;;4.78;2.90;;;;;;;0.99;88.99;102927.00;5055741;28;20465;-88
2023/04/03 01:32:52;;;;;;;4.22;2.60;;;;;;;0.99;89.06;102932.13;5055691;28;20032;-88
2023/04/03 01:35:18;;;;;;;4.35;2.60;;;;;;;0.96;88.80;102930.28;5055421;28;20017;-88
2023/04/03 01:37:43;;;;;;;3.22;2.40;;;;;;;0.94;88.84;102921.63;5055447;28;20063;-87
2023/04/03 01:40:09;;;;;;;4.43;2.60;;;;;;;0.94;89.35;102928.44;5055635;28;20373;-88
2023/04/03 01:42:34;;;;;;;2.72;2.30;;;;;;;0.93;88.95;102927.53;5054740;28;20029;-86
2023/04/03 01:44:59;;;;;;;3.22;2.50;;;;;;;0.88;88.90;102919.59;5057257;28;20025;-87
2023/04/03 01:47:25;;;;;;;3.17;2.50;;;;;;;0.89;89.52;102921.38;5069477;28;20049;-87
2023/04/03 01:49:50;;;;;;;3.35;2.40;;;;;;;0.92;89.03;102931.78;5055004;28;20033;-88
2023/04/03 01:52:15;;;;;;;4.05;3.25;;;;;;;0.87;91.38;102930.63;5055648;28;20021;-88
2023/04/03 01:54:41;;;;;;;7.57;3.75;;;;;;;0.88;92.63;102931.50;5054579;28;20095;-88
2023/04/03 01:57:06;;;;;;;7.72;4.13;;;;;;;0.88;93.32;102934.94;5055385;28;20466;-88
2023/04/03 01:59:31;;;;;;;7.35;4.05;;;;;;;0.90;92.31;102933.34;5055057;28;20110;-87
2023/04/03 02:01:57;;;;;;;10.10;4.75;;;;;;;0.88;92.94;102927.28;5054318;28;20025;-87
2023/04/03 02:04:22;;;;;;;6.57;4.07;;;;;;;0.88;92.60;102929.81;5055046;28;20025;-88
2023/04/03 02:06:48;;;;;;;7.10;4.50;;;;;;;0.86;94.21;102933.09;5054046;28;20103;-87
2023/04/03 02:09:13;;;;;;;11.88;5.60;;;;;;;0.85;94.82;102932.19;5054187;28;20028;-87
2023/04/03 02:11:38;;;;;;;11.68;5.72;;;;;;;0.85;95.52;102932.19;5054494;28;20029;-87
2023/04/03 02:14:04;;;;;;;15.75;6.60;;;;;;;0.83;95.75;102938.91;5054223;28;20084;-88
2023/04/03 02:16:30;;;;;;;12.20;6.15;;;;;;;0.86;95.91;102941.63;5053702;28;20021;-87
2023/04/03 02:18:56;;;;;;;13.50;6.35;;;;;;;0.83;95.80;102935.47;5054956;28;20381;-87
2023/04/03 02:21:21;;;;;;;12.68;6.40;;;;;;;0.84;95.88;102938.13;5054889;28;20021;-87
2023/04/03 02:23:49;;;;;;;13.95;6.72;;;;;;;0.81;95.97;102937.03;5053888;28;20048;-87
2023/04/03 02:26:16;;;;;;;13.07;6.70;;;;;;;0.82;95.76;102934.59;5054506;28;20041;-87
2023/04/03 02:28:41;;;;;;;12.45;6.25;;;;;;;0.81;95.71;102935.38;5054339;28;20473;-88
2023/04/03 02:31:08;;;;;;;11.95;6.15;;;;;;;0.82;95.27;102941.38;5054137;28;20079;-87
2023/04/03 02:33:36;;;;;;;11.43;6.13;;;;;;;0.81;95.58;102942.16;5054525;28;20108;-87
2023/04/03 02:36:06;;;;;;;12.73;6.40;;;;;;;0.80;95.19;102948.94;5054375;28;20025;-87
2023/04/03 02:38:31;;;;;;;13.07;6.13;;;;;;;0.79;95.64;102941.22;5054284;28;20029;-87
2023/04/03 02:41:05;;;;;;;12.40;6.35;;;;;;;0.75;95.23;102946.13;5054589;28;20476;-87
2023/04/03 02:43:30;;;;;;;11.32;5.75;;;;;;;0.81;94.83;102949.81;5054230;28;20045;-87
2023/04/03 02:45:56;;;;;;;13.55;5.75;;;;;;;0.79;95.19;102954.84;5053975;28;20033;-87
2023/04/03 02:48:22;;;;;;;10.85;5.53;;;;;;;0.80;94.91;102956.63;5054305;28;20029;-88
2023/04/03 02:50:47;;;;;;;12.05;5.63;;;;;;;0.75;95.04;102953.81;5053691;28;20017;-87
2023/04/03 02:53:13;;;;;;;10.25;5.20;;;;;;;0.80;94.67;102961.75;5055585;28;20032;-88
2023/04/03 02:55:41;;;;;;;9.18;5.20;;;;;;;0.77;95.37;102954.78;5055082;28;20025;-88
2023/04/03 02:58:06;;;;;;;11.60;5.40;;;;;;;0.77;95.04;102954.78;5054286;28;20020;-87
2023/04/03 03:00:32;;;;;;;13.45;5.72;;;;;;;0.74;94.71;102961.34;5053523;28;20445;-87
2023/04/03 03:02:57;;;;;;;13.10;5.30;;;;;;;0.73;95.03;102959.63;5053972;28;20029;-88
2023/04/03 03:05:22;;;;;;;9.40;4.60;;;;;;;0.74;94.97;102957.13;5053625;28;20465;-88
2023/04/03 03:07:47;;;;;;;10.70;5.00;;;;;;;0.75;94.68;102956.34;5053324;28;20401;-88
2023/04/03 03:10:13;;;;;;;11.05;4.50;;;;;;;0.75;94.37;102958.91;5053827;28;20065;-88
2023/04/03 03:12:40;;;;;;;9.40;4.85;;;;;;;0.64;95.18;102933.50;5052782;28;20373;-88
2023/04/03 03:15:06;;;;;;;11.75;5.20;;;;;;;0.71;94.66;102950.97;5053364;28;20074;-87
2023/04/03 03:17:31;;;;;;;8.20;4.80;;;;;;;0.74;94.54;102951.13;5053268;28;20401;-87
2023/04/03 03:19:57;;;;;;;11.27;4.68;;;;;;;0.70;94.72;102947.50;5053359;28;20033;-87
2023/04/03 03:22:22;;;;;;;8.25;4.40;;;;;;;0.71;94.47;102949.28;5053583;28;20036;-87
2023/04/03 03:24:47;;;;;;;9.57;4.90;;;;;;;0.73;94.22;102957.06;5053418;28;20075;-87
2023/04/03 03:27:13;;;;;;;7.85;4.38;;;;;;;0.71;94.42;102953.53;5053191;28;20107;-87
2023/04/03 03:29:38;;;;;;;8.68;4.03;;;;;;;0.67;93.88;102954.13;5053490;28;20469;-87
2023/04/03 03:32:06;;;;;;;8.27;4.20;;;;;;;0.65;94.22;102954.03;5053685;28;20035;-87
2023/04/03 03:34:32;;;;;;;9.88;4.10;;;;;;;0.72;93.79;102963.84;5052942;28;20048;-87
2023/04/03 03:37:00;;;;;;;7.43;4.10;;;;;;;0.70;94.00;102959.44;5053338;28;20057;-87
2023/04/03 03:39:26;;;;;;;8.52;4.30;;;;;;;0.68;94.23;102966.13;5053084;28;20029;-86
2023/04/03 03:41:54;;;;;;;9.47;4.37;;;;;;;0.69;94.09;102966.19;5052437;28;20107;-87
2023/04/03 03:44:22;;;;;;;9.85;4.15;;;;;;;0.70;93.91;102965.41;5052909;28;20021;-87
2023/04/03 03:46:48;;;;;;;8.40;4.22;;;;;;;0.65;94.19;102966.81;5052996;28;20086;-87
2023/04/03 03:49:15;;;;;;;9.68;4.20;;;;;;;0.61;94.13;102970.88;5052852;28;20025;-87
2023/04/03 03:51:41;;;;;;;8.60;4.10;;;;;;;0.60;93.80;102974.22;5052888;28;20460;-87
2023/04/03 03:54:06;;;;;;;17.52;4.55;;;;;;;0.61;93.99;102977.63;5052578;28;20025;-87
2023/04/03 03:56:32;;;;;;;11.30;4.30;;;;;;;0.62;93.75;102981.97;5053004;28;20071;-86
2023/04/03 03:58:58;;;;;;;8.98;4.30;;;;;;;0.58;93.62;102982.56;5053384;28;20025;-88
2023/04/03 04:01:24;;;;;;;9.00;4.22;;;;;;;0.54;93.66;102980.63;5053050;28;20104;-87
2023/04/03 04:03:49;;;;;;;10.50;4.35;;;;;;;0.56;94.09;102987.59;5053382;28;20100;-87
2023/04/03 04:06:15;;;;;;;7.68;3.88;;;;;;;0.55;93.97;102990.94;5053373;28;20223;-87
2023/04/03 04:08:41;;;;;;;9.48;4.25;;;;;;;0.51;94.17;102983.84;5052146;28;20084;-87
2023/04/03 04:11:07;;;;;;;9.63;3.53;;;;;;;0.49;93.49;102987.13;5053285;28;20078;-87
2023/04/03 04:13:32;;;;;;;8.18;3.65;;;;;;;0.44;94.19;102971.50;5052806;28;20097;-87
2023/04/03 04:15:58;;;;;;;6.18;3.38;;;;;;;0.48;94.21;102986.25;5052274;28;20067;-87
2023/04/03 04:18:23;;;;;;;6.95;3.55;;;;;;;0.45;94.15;102986.91;5053013;28;20021;-88
2023/04/03 04:20:49;;;;;;;6.40;3.72;;;;;;;0.43;94.41;102987.63;5052906;28;20017;-88
2023/04/03 04:23:18;;;;;;;7.05;3.50;;;;;;;0.44;94.56;102982.63;5052178;28;20021;-87
2023/04/03 04:25:49;;;;;;;7.18;3.20;;;;;;;0.45;94.49;102991.16;5055531;28;20078;-87
2023/04/03 04:28:15;;;;;;;6.45;3.17;;;;;;;0.45;94.19;102992.03;5056800;28;20029;-87
2023/04/03 04:30:41;;;;;;;5.57;3.47;;;;;;;0.42;94.63;102989.31;5055924;28;20021;-86
2023/04/03 04:33:06;;;;;;;7.70;3.63;;;;;;;0.40;94.78;102984.88;5056483;28;20028;-87
2023/04/03 04:35:35;;;;;;;8.75;3.75;;;;;;;0.36;95.00;102980.38;5056419;28;20028;-92
2023/04/03 04:38:00;;;;;;;7.70;3.70;;;;;;;0.36;94.73;102978.69;5056839;28;20029;-87
2023/04/03 04:40:32;;;;;;;10.85;3.90;;;;;;;0.39;95.00;102983.13;5056688;28;20473;-86
2023/04/03 04:42:57;;;;;;;10.68;4.07;;;;;;;0.40;94.83;102985.78;5056397;28;20112;-86
2023/04/03 04:45:23;;;;;;;7.88;3.30;;;;;;;0.42;94.61;102988.41;5055312;28;20057;-87
2023/04/03 04:47:52;;;;;;;7.28;3.22;;;;;;;0.40;94.97;102996.00;5055657;28;20036;-87
2023/04/03 04:50:18;;;;;;;7.28;3.30;;;;;;;0.42;94.66;102998.63;5055370;28;20025;-87
2023/04/03 04:52:46;;;;;;;8.20;3.50;;;;;;;0.38;94.82;102999.25;5055602;28;20051;-86
2023/04/03 04:55:11;;;;;;;7.40;3.47;;;;;;;0.35;94.67;102992.25;5056412;28;20044;-87
2023/04/03 04:57:38;;;;;;;7.82;4.00;;;;;;;0.36;94.98;103005.94;5055010;28;20056;-89
2023/04/03 05:00:04;;;;;;;8.20;3.60;;;;;;;0.30;94.56;103004.75;5055890;28;20106;-86
2023/04/03 05:02:30;;;;;;;8.63;3.58;;;;;;;0.31;94.56;103010.75;5056013;28;20454;-87
2023/04/03 05:04:56;;;;;;;8.45;3.65;;;;;;;0.34;94.60;103015.16;5055250;28;20075;-86
2023/04/03 05:07:21;;;;;;;5.75;3.30;;;;;;;0.28;94.66;103002.91;5056480;28;20037;-87
2023/04/03 05:09:47;;;;;;;9.98;3.63;;;;;;;0.29;94.30;103013.19;5056150;28;20049;-86
2023/04/03 05:12:12;;;;;;;12.02;3.80;;;;;;;0.27;94.82;103007.13;5055197;28;20021;-87
2023/04/03 05:14:40;;;;;;;7.35;3.35;;;;;;;0.28;94.55;103011.44;5053375;28;20053;-85
2023/04/03 05:17:05;;;;;;;5.90;3.40;;;;;;;0.25;94.48;103010.34;5060631;28;20114;-85
2023/04/03 05:19:31;;;;;;;8.20;3.40;;;;;;;0.25;94.92;103018.94;5074143;28;20111;-85
2023/04/03 05:21:56;;;;;;;7.38;3.50;;;;;;;0.26;94.84;103019.78;5074264;28;20069;-85
2023/04/03 05:24:21;;;;;;;8.52;3.30;;;;;;;0.26;94.83;103018.13;5074870;28;20039;-85
2023/04/03 05:26:46;;;;;;;10.50;3.70;;;;;;;0.20;94.70;103006.66;5073789;28;20146;-84
2023/04/03 05:29:14;;;;;;;7.35;3.40;;;;;;;0.26;94.65;103018.13;5075024;28;20032;-85
2023/04/03 05:31:40;;;;;;;7.28;3.47;;;;;;;0.24;93.93;103018.81;5071446;28;20085;-85
2023/04/03 05:34:05;;;;;;;7.75;3.40;;;;;;;0.28;94.23;103020.78;5074136;28;20380;-85
2023/04/03 05:36:31;;;;;;;6.45;3.20;;;;;;;0.27;93.88;103025.03;5073528;28;20499;-84
2023/04/03 05:38:56;;;;;;;8.43;3.40;;;;;;;0.26;93.47;103030.00;5074973;28;20020;-84
2023/04/03 05:41:22;;;;;;;9.35;3.42;;;;;;;0.29;93.32;103032.75;5073995;28;20097;-86
2023/04/03 05:43:47;;;;;;;10.95;3.72;;;;;;;0.30;93.39;103032.84;5073049;28;20048;-88
2023/04/03 05:46:15;;;;;;;9.85;3.58;;;;;;;0.32;93.10;103032.06;5074237;28;20032;-83
2023/04/03 05:48:41;;;;;;;9.77;3.60;;;;;;;0.30;93.18;103035.41;5073569;28;20521;-86
2023/04/03 05:51:13;;;;;;;11.75;4.13;;;;;;;0.33;93.59;103036.38;5074468;28;20111;-85
2023/04/03 05:53:38;;;;;;;10.85;4.13;;;;;;;0.31;93.03;103036.31;5073522;28;20021;-84
2023/04/03 05:56:04;;;;;;;9.82;3.92;;;;;;;0.26;92.70;103030.91;5074533;28;20032;-84
2023/04/03 05:58:29;;;;;;;10.15;3.70;;;;;;;0.34;92.78;103039.03;5074513;28;20423;-84
2023/04/03 06:00:57;;;;;;;7.22;3.50;;;;;;;0.37;92.87;103041.78;5072794;28;20056;-85
2023/04/03 06:03:23;;;;;;;9.15;3.20;;;;;;;0.35;92.08;103039.94;5074219;28;20419;-85
2023/04/03 06:05:48;;;;;;;10.10;3.60;;;;;;;0.40;92.53;103041.06;5073797;28;20082;-85
2023/04/03 06:08:14;;;;;;;8.25;3.38;;;;;;;0.39;92.44;103042.75;5073477;28;20052;-85
2023/04/03 06:10:40;;;;;;;8.10;3.35;;;;;;;0.44;92.03;103048.16;5073817;28;20028;-85
2023/04/03 06:13:05;;;;;;;7.40;3.20;;;;;;;0.48;92.66;103050.13;5074012;28;20111;-85
2023/04/03 06:15:31;;;;;;;9.75;3.58;;;;;;;0.49;91.87;103057.00;5053509;28;20059;-86
2023/04/03 06:17:56;;;;;;;8.75;3.53;;;;;;;0.49;91.81;103046.78;5054235;28;20036;-85
2023/04/03 06:20:22;;;;;;;7.25;3.47;;;;;;;0.52;91.41;103056.31;5054168;28;20025;-85
2023/04/03 06:22:48;;;;;;;8.50;3.42;;;;;;;0.54;91.18;103062.41;5052880;28;20029;-85
2023/04/03 06:25:14;;;;;;;9.13;3.58;;;;;;;0.60;91.00;103055.09;5053897;28;20075;-85
2023/04/03 06:27:39;;;;;;;7.32;3.40;;;;;;;0.62;91.03;103058.63;5053660;28;20108;-85
2023/04/03 06:30:08;;;;;;;7.63;3.13;;;;;;;0.61;90.70;103047.53;5052588;28;20452;-85
2023/04/03 06:32:33;;;;;;;9.70;3.45;;;;;;;0.67;90.99;103059.81;5053187;28;20029;-85
2023/04/03 06:35:00;;;;;;;9.10;3.20;;;;;;;0.70;90.51;103059.09;5053811;28;20017;-85
2023/04/03 06:37:29;;;;;;;9.98;3.80;;;;;;;0.74;90.14;103055.94;5052817;28;20021;-85
2023/04/03 06:39:54;;;;;;;9.82;3.70;;;;;;;0.82;90.59;103066.63;5052237;28;20120;-85
2023/04/03 06:42:20;;;;;;;9.88;3.83;;;;;;;0.87;90.18;103070.34;5053438;28;20103;-85
2023/04/03 06:44:46;;;;;;;8.32;3.35;;;;;;;0.88;89.41;103067.03;5060606;28;20384;-83
2023/04/03 06:47:13;;;;;;;7.85;3.28;;;;;;;0.96;88.42;103067.47;5072902;28;20528;-82
2023/04/03 06:49:38;;;;;;;8.52;3.25;;;;;;;0.91;87.97;103070.63;5073312;28;20467;-83
2023/04/03 06:52:04;;;;;;;9.65;3.30;;;;;;;0.97;87.92;103075.25;5072586;28;20031;-83
2023/04/03 06:54:30;;;;;;;8.13;3.10;;;;;;;1.00;88.15;103072.88;5073406;28;20189;-83
2023/04/03 06:56:58;;;;;;;8.73;3.20;;;;;;;1.08;88.47;103076.75;5072401;28;20025;-83
2023/04/03 06:59:23;;;;;;;10.90;3.47;;;;;;;1.59;87.28;103081.41;5073298;28;20025;-83
2023/04/03 07:01:49;;;;;;;9.35;3.08;;;;;;;3.63;79.19;103080.25;5073021;28;20029;-83
2023/04/03 07:04:15;;;;;;;7.35;3.10;;;;;;;5.87;75.38;103076.47;5072416;28;20025;-83
2023/04/03 07:06:41;;;;;;;6.95;2.90;;;;;;;8.37;62.15;103077.41;5072973;28;20039;-83
2023/04/03 07:09:07;;;;;;;7.22;2.60;;;;;;;10.03;59.06;103080.06;5073102;28;20496;-84
2023/04/03 07:11:32;;;;;;;6.93;2.85;;;;;;;10.43;50.44;103088.75;5072130;28;20039;-84
2023/04/03 07:13:58;;;;;;;7.05;2.80;;;;;;;9.75;52.87;103084.56;5066606;28;20021;-84
2023/04/03 07:16:23;;;;;;;6.28;2.90;;;;;;;8.94;52.46;103095.50;5053031;28;20032;-84
2023/04/03 07:18:48;;;;;;;6.70;2.80;;;;;;;8.70;56.32;103085.31;5051997;28;20052;-84
2023/04/03 07:21:14;;;;;;;7.20;2.80;;;;;;;7.22;59.24;103104.75;5054194;28;20392;-84
2023/04/03 07:23:39;;;;;;;6.43;2.80;;;;;;;4.73;64.43;103096.56;5052571;28;20029;-84
2023/04/03 07:26:05;;;;;;;7.13;2.90;;;;;;;4.30;69.91;103095.47;5052061;28;20021;-84
2023/04/03 07:28:30;;;;;;;8.18;2.90;;;;;;;3.53;72.84;103099.47;5052422;28;20044;-84
2023/04/03 07:31:13;;;;;;;8.32;3.05;;;;;;;2.97;74.61;103106.91;5069927;28;20081;-84
2023/04/03 07:33:39;;;;;;;8.05;3.10;;;;;;;2.61;77.20;103106.69;5071804;28;20091;-84
2023/04/03 07:36:06;;;;;;;10.32;3.25;;;;;;;2.38;77.30;103110.53;5073061;28;20112;-83
2023/04/03 07:38:32;;;;;;;7.90;3.28;;;;;;;2.44;78.34;103108.34;5072265;28;20578;-84
2023/04/03 07:40:57;;;;;;;6.35;2.70;;;;;;;2.31;78.16;103112.78;5071615;28;20107;-84
2023/04/03 07:43:24;;;;;;;8.13;3.00;;;;;;;2.28;79.51;103106.63;5071529;28;20035;-83
2023/04/03 07:45:50;;;;;;;8.75;3.45;;;;;;;2.33;78.81;103115.41;5072224;28;20486;-83
2023/04/03 07:48:17;;;;;;;8.43;3.20;;;;;;;2.44;79.17;103113.47;5072139;28;20024;-83
2023/04/03 07:50:43;;;;;;;8.27;2.90;;;;;;;2.47;79.98;103124.75;5072370;28;20029;-83
2023/04/03 07:53:08;;;;;;;9.90;3.30;;;;;;;2.54;79.31;103123.41;5071756;28;20023;-83
2023/04/03 07:55:37;;;;;;;8.75;3.10;;;;;;;2.53;78.58;103110.53;5072325;28;20029;-83
2023/04/03 07:58:02;;;;;;;8.55;2.97;;;;;;;2.59;79.44;103106.59;5072505;28;20035;-83
2023/04/03 08:00:28;;;;;;;7.63;3.10;;;;;;;2.66;78.57;103112.06;5076070;28;20032;-83
2023/04/03 08:02:53;;;;;;;7.68;2.90;;;;;;;2.60;78.31;103116.06;5076344;28;20384;-83
2023/04/03 08:05:19;;;;;;;11.25;3.20;;;;;;;2.60;78.56;103110.06;5076555;28;20035;-83
2023/04/03 08:07:45;;;;;;;8.50;3.17;;;;;;;2.78;78.29;103121.28;5075370;28;20403;-84
2023/04/03 08:10:10;;;;;;;10.60;3.10;;;;;;;2.84;78.21;103115.59;5076421;28;20107;-83
2023/04/03 08:12:36;;;;;;;8.68;3.13;;;;;;;2.88;76.08;103125.25;5076275;28;20025;-83
2023/04/03 08:15:03;;;;;;;5.43;2.85;;;;;;;2.98;75.99;103124.06;5060916;28;20508;-83
2023/04/03 08:17:28;;;;;;;6.90;2.90;;;;;;;3.04;75.92;103123.50;5056287;28;20033;-84
2023/04/03 08:19:53;;;;;;;6.78;3.10;;;;;;;3.15;76.64;103118.91;5055843;28;20095;-83
2023/04/03 08:22:19;;;;;;;7.55;3.10;;;;;;;3.12;75.51;103123.88;5055248;28;20040;-83
2023/04/03 08:24:47;;;;;;;7.53;2.97;;;;;;;3.22;75.96;103119.31;5055758;28;20115;-83
2023/04/03 08:27:12;;;;;;;9.38;2.90;;;;;;;3.30;75.47;103116.25;5055667;28;20043;-83
2023/04/03 08:29:37;;;;;;;10.68;2.90;;;;;;;3.38;72.03;103123.56;5055178;28;20103;-84
2023/04/03 08:32:04;;;;;;;6.35;2.70;;;;;;;3.39;70.50;103132.13;5056261;28;20021;-83
2023/04/03 08:34:30;;;;;;;;;;;;;;;3.51;72.23;103125.03;5056453;28;20037;-83
2023/04/03 08:36:56;;;;;;;8.43;2.60;;;;;;;3.73;71.09;103125.25;5055117;28;19958;-83
2023/04/03 08:39:21;;;;;;;9.57;2.85;;;;;;;3.70;70.52;103128.56;5055649;28;20108;-83
2023/04/03 08:41:47;;;;;;;6.57;2.58;;;;;;;3.82;69.95;103118.91;5055344;28;20033;-84
2023/04/03 08:44:25;;;;;;;8.07;2.80;;;;;;;4.02;66.71;103130.13;5055019;28;20033;-83
2023/04/03 08:47:06;;;;;;;7.32;2.80;;;;;;;4.13;66.70;103125.53;5055667;28;20290;-83
2023/04/03 08:49:47;;;;;;;6.22;2.70;;;;;;;4.25;63.63;103132.06;5054692;28;20389;-83
2023/04/03 08:52:17;;;;;;;6.97;2.30;;;;;;;4.24;59.31;103131.16;5055855;28;20031;-83
2023/04/03 08:54:59;;;;;;;5.85;2.30;;;;;;;4.36;60.98;103125.75;5055498;28;20025;-83
2023/04/03 08:57:35;;;;;;;7.22;2.65;;;;;;;4.56;62.78;103129.22;5054892;28;20040;-84
2023/04/03 09:00:17;;;;;;;5.57;2.35;;;;;;;4.71;62.76;103130.75;5063794;22;20022;-83
2023/04/03 09:02:54;;;;;;;5.30;2.40;;;;;;;4.68;59.21;103136.63;5074954;28;20029;-83
2023/04/03 09:05:43;;;;;;;5.40;2.33;;;;;;;4.75;58.13;103137.81;5074892;28;20021;-83
2023/04/03 09:08:22;;;;;;;5.78;2.20;;;;;;;4.89;57.74;103135.84;5075398;28;20035;-83
2023/04/03 09:10:49;;;;;;;8.00;2.60;;;;;;;4.93;58.48;103118.03;5073235;28;20111;-83
2023/04/03 09:13:47;;;;;;;5.70;2.50;;;;;;;5.09;56.98;103132.47;5074005;28;20112;-83
2023/04/03 09:16:25;;;;;;;8.30;2.47;;;;;;;5.20;55.36;103134.63;5074986;28;20032;-84
2023/04/03 09:19:01;;;;;;;7.82;2.45;;;;;;;5.30;54.52;103134.22;5074043;28;20028;-83
2023/04/03 09:21:38;;;;;;;3.22;2.10;;;;;;;5.13;50.55;103136.06;5075107;28;20040;-83
2023/04/03 09:24:07;;;;;;;5.88;2.15;;;;;;;5.22;52.30;103139.06;5075239;28;20057;-83
2023/04/03 09:26:53;;;;;;;6.70;2.00;;;;;;;5.37;51.39;103138.84;5073915;28;20036;-83
2023/04/03 09:29:22;;;;;;;4.07;2.30;;;;;;;5.57;52.76;103152.56;5075036;28;20017;-83
2023/04/03 09:32:00;;;;;;;3.03;1.90;;;;;;;5.64;48.63;103137.38;5073783;28;20052;-83
2023/04/03 09:34:36;;;;;;;4.78;1.70;;;;;;;5.67;45.96;103146.09;5074855;28;20508;-83
2023/04/03 09:37:06;;;;;;;3.95;1.88;;;;;;;5.60;46.23;103132.91;5074869;28;20032;-83
2023/04/03 09:39:49;;;;;;;4.60;1.73;;;;;;;5.50;46.93;103136.81;5073891;28;20061;-83
2023/04/03 09:42:19;;;;;;;2.75;1.80;;;;;;;5.75;49.57;103132.66;5074477;28;20419;-83
2023/04/03 09:44:54;;;;;;;2.53;1.60;;;;;;;5.80;42.21;103128.59;5074469;28;20111;-83
2023/04/03 09:47:33;;;;;;;5.68;1.50;;;;;;;5.49;40.67;103111.84;5073490;28;20074;-82
2023/04/03 09:50:19;;;;;;;2.42;1.45;;;;;;;5.70;41.18;103117.91;5074481;28;20028;-83
2023/04/03 09:52:48;;;;;;;;;;;;;;;5.92;42.77;103120.47;5073861;28;20052;-83
2023/04/03 09:55:26;;;;;;;2.40;1.42;;;;;;;6.08;40.30;103117.72;5074440;28;19912;-85
2023/04/03 09:58:04;;;;;;;1.98;1.35;;;;;;;6.17;40.12;103112.94;5074143;28;20028;-82
2023/04/03 10:00:39;;;;;;;1.95;1.40;;;;;;;6.25;40.79;103104.66;5073396;28;20403;-82
2023/04/03 10:03:27;;;;;;;4.22;1.27;;;;;;;6.31;39.92;103092.84;5074511;28;20534;-84
2023/04/03 10:05:54;;;;;;;2.80;1.60;;;;;;;6.23;40.04;103101.13;5074172;28;20074;-85
2023/04/03 10:08:23;;;;;;;4.07;1.60;;;;;;;6.22;39.89;103109.69;5074113;28;20035;-86
2023/04/03 10:11:05;;;;;;;2.00;1.40;;;;;;;6.09;41.28;103104.03;5063758;28;20040;-87
2023/04/03 10:13:30;;;;;;;3.63;1.48;;;;;;;6.02;40.04;103097.75;5065841;28;20461;-86
2023/04/03 10:16:06;;;;;;;1.67;1.20;;;;;;;6.35;42.06;103101.59;5074083;28;20073;-87
2023/04/03 10:18:49;;;;;;;2.85;1.48;;;;;;;6.45;39.80;103108.88;5074281;28;20032;-88
2023/04/03 10:21:52;;;;;;;1.67;1.40;;;;;;;6.41;39.30;103100.97;5073855;28;20158;-87
2023/04/03 10:24:47;;;;;;;3.70;1.60;;;;;;;6.49;37.37;103096.97;5074126;28;20054;-87
2023/04/03 10:27:50;;;;;;;2.92;1.30;;;;;;;6.29;37.18;103094.50;5074167;28;20032;-88
2023/04/03 10:30:15;;;;;;;3.08;1.27;;;;;;;6.48;38.46;103090.91;5074134;28;20478;-87
2023/04/03 10:32:53;;;;;;;4.23;1.57;;;;;;;6.73;37.86;103088.38;5073837;28;20028;-87
2023/04/03 10:35:25;;;;;;;1.88;1.20;;;;;;;6.99;37.64;103080.69;5073017;28;20503;-84
2023/04/03 10:38:15;;;;;;;2.13;0.93;;;;;;;7.13;35.67;103089.81;5073324;28;20791;-84
2023/04/03 10:40:57;;;;;;;1.17;1.08;;;;;;;7.24;37.33;103061.78;5073335;28;20361;-83
2023/04/03 10:43:44;;;;;;;3.30;1.23;;;;;;;7.37;35.84;103071.72;5072574;28;20086;-84
2023/04/03 10:46:17;;;;;;;1.85;1.20;;;;;;;7.49;35.73;103075.50;5073167;28;20400;-84
2023/04/03 10:48:54;;;;;;;2.10;1.13;;;;;;;7.71;38.13;103054.72;5073155;28;20024;-84
2023/04/03 10:51:35;;;;;;;1.85;1.08;;;;;;;7.91;37.32;103057.06;5073544;28;20016;-84
2023/04/03 10:54:10;;;;;;;2.28;1.58;;;;;;;7.82;36.21;103056.78;5073007;28;20059;-84
2023/04/03 10:56:54;;;;;;;1.88;1.33;;;;;;;7.38;33.24;103063.09;5072326;28;20028;-84
2023/04/03 10:59:31;;;;;;;2.55;1.10;;;;;;;7.34;34.35;103063.84;5073619;28;20021;-84
2023/04/03 11:02:02;;;;;;;2.65;1.40;;;;;;;7.06;32.83;103052.56;5073028;28;20519;-84
2023/04/03 11:04:31;;;;;;;1.60;0.93;;;;;;;7.47;36.42;103049.63;5072428;28;20549;-84
2023/04/03 11:07:03;;;;;;;1.85;1.35;;;;;;;7.62;33.85;103043.22;5072950;28;20031;-83
2023/04/03 11:09:37;;;;;;;1.38;1.20;;;;;;;7.49;34.63;103047.09;5073093;28;20070;-83
2023/04/03 11:12:17;;;;;;;2.38;1.42;;;;;;;7.25;35.72;103048.91;5072317;28;20032;-84
2023/04/03 11:14:43;;;;;;;3.35;1.40;;;;;;;7.21;37.01;103046.16;5073024;28;20063;-84
2023/04/03 11:17:23;;;;;;;1.73;1.47;;;;;;;7.42;35.47;103046.91;5072309;28;20025;-83
2023/04/03 11:20:00;;;;;;;2.42;1.55;;;;;;;7.54;35.37;103046.41;5072696;28;20029;-84
2023/04/03 11:22:50;;;;;;;1.50;1.33;;;;;;;7.29;35.62;103036.97;5072764;28;20586;-84
2023/04/03 11:25:24;;;;;;;1.58;1.27;;;;;;;7.36;35.30;103025.13;5072343;28;20036;-83
2023/04/03 11:27:57;;;;;;;5.20;1.60;;;;;;;7.61;36.10;103039.72;5071469;28;20533;-83
2023/04/03 11:30:31;;;;;;;2.55;1.23;;;;;;;7.71;35.46;103025.41;5052708;28;20025;-83
2023/04/03 11:33:41;;;;;;;3.47;1.33;;;;;;;7.69;36.27;103020.22;5052047;28;20079;-83
2023/04/03 11:36:09;;;;;;;2.22;1.25;;;;;;;7.73;35.22;103016.88;5052323;28;20127;-85
2023/04/03 11:38:41;;;;;;;2.60;1.45;;;;;;;7.36;35.73;103007.94;5052709;28;20028;-83
2023/04/03 11:41:08;;;;;;;3.00;1.50;;;;;;;7.50;37.66;103017.84;5052658;28;20047;-85